Time;durP1;ratioP1;P1;durP2;ratioP2;P2;SDS_P1;SDS_P2;PMS_P1;PMS_P2;Temp;Humidity;BMP_temperature;BMP_pressure;BME280_temperature;BME280_humidity;BME280_pressure;Samples;Min_cycle;Max_cycle;Signal;HPM_P1;HPM_P2
2024/01/27 00:00:09;;;;;;;8.03;1.60;;;7.80;99.90;;;8.21;55.63;103035.94;6076420;22;97338;-36
2024/01/27 00:02:36;;;;;;;2.30;1.53;;;7.80;99.90;;;8.19;55.63;103050.84;6115802;22;98072;-36
2024/01/27 00:05:02;;;;;;;8.43;1.90;;;7.80;99.90;;;8.19;55.54;103045.56;6090569;22;97648;-36
2024/01/27 00:07:28;;;;;;;3.93;1.33;;;7.80;99.90;;;8.17;56.31;103047.31;6118157;22;97230;-37
2024/01/27 00:09:59;;;;;;;6.40;1.53;;;7.80;99.90;;;8.12;54.99;103049.00;6106120;22;99853;-38
2024/01/27 00:12:24;;;;;;;4.93;1.77;;;7.80;99.90;;;8.06;54.82;103040.16;6103876;22;102609;-38
2024/01/27 00:14:50;;;;;;;3.73;1.57;;;7.70;99.90;;;8.00;55.25;103040.09;6119778;22;98290;-37
2024/01/27 00:17:16;;;;;;;3.20;1.60;;;7.60;99.90;;;7.93;55.51;103043.50;6119951;22;97372;-38
2024/01/27 00:19:42;;;;;;;10.67;1.60;;;7.60;99.90;;;7.88;55.74;103042.56;6121391;22;102109;-37
2024/01/27 00:22:08;;;;;;;3.67;1.10;;;7.50;99.90;;;7.86;55.45;103046.91;6118195;22;98090;-37
2024/01/27 00:24:34;;;;;;;3.23;1.63;;;7.50;99.90;;;7.89;55.98;103051.31;6119617;22;117363;-37
2024/01/27 00:27:00;;;;;;;3.97;1.60;;;7.50;99.90;;;7.95;57.01;103054.91;6119962;22;98022;-38
2024/01/27 00:29:26;;;;;;;5.07;1.63;;;7.50;99.90;;;7.91;55.60;103066.25;6094824;22;102629;-36
2024/01/27 00:31:54;;;;;;;4.40;0.97;;;7.50;99.90;;;7.88;55.44;103071.47;6091910;22;118122;-37
2024/01/27 00:34:20;;;;;;;7.70;1.70;;;7.60;99.90;;;7.91;55.77;103063.63;6097308;22;102773;-37
2024/01/27 00:36:48;;;;;;;5.77;1.80;;;7.50;99.90;;;7.94;56.21;103066.28;6113486;22;97690;-36
2024/01/27 00:39:15;;;;;;;7.80;1.60;;;7.50;99.90;;;7.90;56.25;103059.22;6117634;22;101802;-39
2024/01/27 00:41:42;;;;;;;4.30;1.57;;;7.50;99.90;;;7.82;54.97;103060.88;6117677;22;103369;-37
2024/01/27 00:44:08;;;;;;;3.17;1.00;;;7.50;99.90;;;7.79;55.24;103066.06;6117928;22;97065;-36
2024/01/27 00:46:34;;;;;;;3.83;0.93;;;7.50;99.90;;;7.74;55.21;103054.63;6116330;22;97976;-38
2024/01/27 00:48:59;;;;;;;7.37;1.20;;;7.40;99.90;;;7.71;55.31;103058.09;6119788;22;113377;-36
2024/01/27 00:51:25;;;;;;;3.43;1.10;;;7.40;99.90;;;7.69;56.19;103064.19;6121109;22;102980;-39
2024/01/27 00:53:54;;;;;;;5.30;1.33;;;7.40;99.90;;;7.63;55.51;103069.34;6118299;22;97324;-37
2024/01/27 00:56:20;;;;;;;3.00;1.30;;;7.30;99.90;;;7.60;55.75;103071.94;6119687;22;99250;-38
2024/01/27 00:58:45;;;;;;;2.50;1.00;;;7.30;99.90;;;7.55;55.03;103078.88;6122322;22;98335;-40
2024/01/27 01:01:11;;;;;;;2.50;1.27;;;7.20;99.90;;;7.58;56.94;103077.16;6120529;22;110490;-37
2024/01/27 01:03:37;;;;;;;4.20;1.23;;;7.20;99.90;;;7.53;54.89;103077.97;6102693;22;105773;-43
2024/01/27 01:06:03;;;;;;;10.17;1.70;;;7.20;99.90;;;7.44;55.32;103076.97;6114583;22;110927;-39
2024/01/27 01:08:29;;;;;;;1.77;1.13;;;7.10;99.90;;;7.40;55.87;103077.78;6120704;22;99649;-37
2024/01/27 01:10:55;;;;;;;2.47;1.07;;;7.10;99.90;;;7.33;55.74;103075.91;6114427;22;108323;-37
2024/01/27 01:13:20;;;;;;;2.77;1.30;;;7.00;99.90;;;7.29;55.55;103087.22;6113839;22;97388;-36
2024/01/27 01:15:46;;;;;;;5.73;1.60;;;7.00;99.90;;;7.27;56.34;103085.44;6120351;22;97979;-36
2024/01/27 01:18:12;;;;;;;8.80;2.03;;;7.00;99.90;;;7.26;56.67;103084.56;6122968;22;102961;-37
2024/01/27 01:20:38;;;;;;;5.13;1.53;;;7.00;99.90;;;7.28;55.63;103082.81;6118588;22;105277;-36
2024/01/27 01:23:04;;;;;;;6.53;1.83;;;7.00;99.90;;;7.31;56.39;103088.13;6120915;22;106166;-37
2024/01/27 01:25:30;;;;;;;10.40;1.50;;;7.00;99.90;;;7.30;57.29;103072.34;6113413;22;97976;-35
2024/01/27 01:27:56;;;;;;;3.13;1.40;;;6.90;99.90;;;7.29;56.01;103078.47;6089096;22;101762;-36
2024/01/27 01:30:24;;;;;;;5.97;1.40;;;7.00;99.90;;;7.32;56.84;103081.13;6118793;22;105582;-44
2024/01/27 01:32:50;;;;;;;4.63;1.70;;;7.00;99.90;;;7.35;56.19;103079.44;6119575;22;106287;-37
2024/01/27 01:35:16;;;;;;;8.80;1.83;;;7.00;99.90;;;7.36;56.51;103081.19;6121980;22;98404;-37
2024/01/27 01:37:42;;;;;;;5.20;1.77;;;7.00;99.90;;;7.37;56.56;103088.22;6119158;22;106791;-37
2024/01/27 01:40:08;;;;;;;6.73;1.77;;;7.00;99.90;;;7.31;56.19;103085.50;6120314;22;100035;-36
2024/01/27 01:42:34;;;;;;;6.73;1.50;;;6.90;99.90;;;7.35;55.83;103084.69;6121932;22;98317;-38
2024/01/27 01:45:00;;;;;;;4.73;1.57;;;7.00;99.90;;;7.35;55.49;103083.78;6118193;22;100590;-37
2024/01/27 01:47:26;;;;;;;1.77;1.03;;;7.00;99.90;;;7.32;55.28;103089.88;6118647;22;97907;-37
2024/01/27 01:49:52;;;;;;;4.00;1.63;;;7.00;99.90;;;7.36;57.15;103091.69;6093940;22;109380;-37
2024/01/27 01:52:20;;;;;;;7.97;1.63;;;6.90;99.90;;;7.39;56.38;103090.88;6108648;22;105375;-37
2024/01/27 01:54:52;;;;;;;10.57;2.10;;;7.00;99.90;;;7.42;55.60;103086.56;6087476;22;98242;-38
2024/01/27 01:57:18;;;;;;;7.80;1.67;;;7.00;99.90;;;7.33;55.84;103091.66;6115623;22;98733;-37
2024/01/27 01:59:44;;;;;;;5.87;1.90;;;7.00;99.90;;;7.35;55.96;103089.94;6119041;22;103126;-38
2024/01/27 02:02:10;;;;;;;5.67;1.73;;;7.00;99.90;;;7.34;56.06;103092.53;6118232;22;119245;-36
2024/01/27 02:04:43;;;;;;;8.53;1.87;;;7.00;99.90;;;7.39;55.82;103097.03;6116361;22;97521;-38
2024/01/27 02:07:09;;;;;;;4.87;2.30;;;7.00;99.90;;;7.41;59.19;103100.56;6110505;22;99394;-37
2024/01/27 02:09:35;;;;;;;9.30;2.07;;;7.00;99.90;;;7.33;56.62;103090.78;6121805;22;100489;-41
2024/01/27 02:12:09;;;;;;;6.60;2.13;;;6.90;99.90;;;7.37;55.77;103098.72;6021884;22;97947;-38
2024/01/27 02:14:39;;;;;;;5.10;1.50;;;7.00;99.90;;;7.84;61.67;103088.06;6058432;22;97705;-34
2024/01/27 02:17:24;;;;;;;6.83;2.10;;;7.10;99.90;;;8.19;58.25;103087.66;5958260;22;103061;-36
2024/01/27 02:19:55;;;;;;;8.50;2.10;;;7.40;99.90;;;7.75;53.90;103093.19;5969373;22;102688;-36
2024/01/27 02:22:26;;;;;;;3.80;1.57;;;7.20;99.90;;;7.66;55.68;103093.03;5961016;22;98584;-34
2024/01/27 02:25:05;;;;;;;8.20;2.30;;;7.10;99.90;;;7.57;53.79;103090.28;6025980;22;97374;-37
2024/01/27 02:27:36;;;;;;;5.37;1.80;;;7.10;99.90;;;7.40;54.86;103104.03;6079068;22;99864;-34
2024/01/27 02:30:05;;;;;;;9.93;2.77;;;6.90;99.90;;;7.34;54.79;103103.91;6084865;22;106253;-35
2024/01/27 02:32:42;;;;;;;3.50;1.97;;;6.90;99.90;;;7.21;56.04;103104.56;5989723;22;100785;-35
2024/01/27 02:35:08;;;;;;;5.90;1.80;;;6.80;99.90;;;7.28;54.92;103098.59;5863651;22;99605;-42
2024/01/27 02:37:37;;;;;;;5.10;2.33;;;6.90;99.90;;;7.27;58.39;103090.69;5858259;22;104466;-34
2024/01/27 02:40:10;;;;;;;8.23;1.67;;;6.80;99.90;;;7.22;56.82;103093.22;5867582;22;106085;-36
2024/01/27 02:42:50;;;;;;;8.13;2.00;;;6.80;99.90;;;7.21;56.08;103096.69;5919097;22;98806;-37
2024/01/27 02:45:27;;;;;;;4.00;1.60;;;6.80;99.90;;;7.12;56.44;103107.06;6005464;22;121425;-35
2024/01/27 02:47:53;;;;;;;6.83;2.37;;;6.70;99.90;;;7.14;55.48;103102.72;6041874;22;102399;-40
2024/01/27 02:50:19;;;;;;;10.97;1.63;;;6.70;99.90;;;7.13;56.81;103104.47;5934038;22;101159;-36
2024/01/27 02:52:49;;;;;;;8.53;2.20;;;6.70;99.90;;;7.05;55.85;103099.91;6028356;22;105600;-37
2024/01/27 02:55:29;;;;;;;7.60;2.50;;;6.60;99.90;;;7.16;58.41;103104.50;5871944;22;97854;-35
2024/01/27 02:58:08;;;;;;;5.40;1.50;;;6.60;99.90;;;7.13;56.75;103098.31;5895012;22;103459;-34
2024/01/27 03:00:41;;;;;;;5.17;1.60;;;6.70;99.90;;;7.28;56.62;103095.06;5873315;22;98071;-36
2024/01/27 03:03:11;;;;;;;8.17;2.03;;;6.80;99.90;;;7.24;55.34;103101.13;5974505;22;109188;-36
2024/01/27 03:05:39;;;;;;;4.30;2.27;;;6.80;99.90;;;7.18;55.17;103096.66;6001536;22;112494;-36
2024/01/27 03:08:16;;;;;;;5.27;2.17;;;6.70;99.90;;;7.48;57.50;103096.25;6034473;22;111729;-36
2024/01/27 03:10:50;;;;;;;2.93;1.50;;;6.90;99.90;;;7.41;56.27;103100.56;5970660;22;104569;-36
2024/01/27 03:13:27;;;;;;;6.20;1.70;;;6.90;99.90;;;7.28;54.01;103103.84;5987571;22;99661;-42
2024/01/27 03:15:53;;;;;;;8.13;1.90;;;6.90;99.90;;;7.25;57.51;103102.91;5975327;22;99293;-45
2024/01/27 03:18:21;;;;;;;7.77;1.83;;;6.80;99.90;;;7.32;60.25;103110.91;5940158;22;99318;-46
2024/01/27 03:20:56;;;;;;;7.00;1.70;;;6.70;99.90;;;7.16;54.85;103108.88;6059227;22;97697;-44
2024/01/27 03:23:28;;;;;;;8.83;2.50;;;6.70;99.90;;;7.05;55.46;103110.41;5793645;22;123848;-45
2024/01/27 03:26:12;;;;;;;6.43;1.93;;;6.70;99.90;;;6.94;54.98;103122.44;5989017;22;116287;-43
2024/01/27 03:28:55;;;;;;;4.60;1.43;;;6.50;99.90;;;6.93;56.02;103112.81;6005683;22;106923;-41
2024/01/27 03:31:40;;;;;;;3.47;1.80;;;6.50;99.90;;;7.17;56.57;103110.63;6000930;22;100983;-41
2024/01/27 03:34:11;;;;;;;3.07;1.50;;;6.60;99.90;;;7.08;56.16;103120.97;6112159;22;97757;-42
2024/01/27 03:36:40;;;;;;;4.93;1.67;;;6.60;99.90;;;7.02;55.81;103120.88;5979766;22;112232;-45
2024/01/27 03:39:07;;;;;;;5.97;1.27;;;6.60;99.90;;;6.98;56.19;103124.31;6020930;22;99501;-43
2024/01/27 03:41:32;;;;;;;6.37;2.07;;;6.60;99.90;;;6.98;54.72;103124.31;5948517;22;97506;-34
2024/01/27 03:43:58;;;;;;;4.00;1.77;;;6.50;99.90;;;6.90;54.75;103123.25;6002140;22;111697;-42
2024/01/27 03:46:38;;;;;;;8.23;2.37;;;6.50;99.90;;;6.82;55.39;103118.78;6054005;22;101791;-38
2024/01/27 03:49:08;;;;;;;6.40;1.67;;;6.50;99.90;;;6.77;55.30;103120.41;6010644;22;100220;-42
2024/01/27 03:51:40;;;;;;;6.07;1.97;;;6.40;99.90;;;6.77;58.79;103114.28;5953316;22;111877;-38
2024/01/27 03:54:08;;;;;;;2.53;1.20;;;6.30;99.90;;;6.69;55.64;103122.00;5937219;22;104783;-42
2024/01/27 03:56:34;;;;;;;5.67;1.60;;;6.30;99.90;;;6.65;55.71;103114.91;6094325;22;97553;-41
2024/01/27 03:58:59;;;;;;;5.87;1.57;;;6.30;99.90;;;6.57;55.38;103116.53;6059792;22;126566;-41
2024/01/27 04:01:51;;;;;;;8.37;1.33;;;6.20;99.90;;;6.68;58.82;103117.63;6077382;22;123522;-38
2024/01/27 04:04:18;;;;;;;2.43;1.40;;;6.30;99.90;;;7.05;61.06;103126.16;6009440;22;100578;-42
2024/01/27 04:06:51;;;;;;;3.63;1.93;;;6.40;99.90;;;7.14;58.18;103131.59;6069274;22;119216;-34
2024/01/27 04:09:27;;;;;;;6.53;1.73;;;6.60;99.90;;;7.14;55.70;103126.34;6062189;22;101364;-43
2024/01/27 04:12:10;;;;;;;9.90;1.80;;;6.60;99.90;;;7.27;59.75;103137.94;5959698;22;97690;-36
2024/01/27 04:14:38;;;;;;;6.33;1.70;;;6.60;99.90;;;7.43;63.24;103135.59;5978127;22;97761;-44
2024/01/27 04:17:06;;;;;;;4.53;1.80;;;6.70;99.90;;;7.52;53.69;103139.22;5949203;22;116322;-39
2024/01/27 04:19:44;;;;;;;6.63;1.63;;;6.90;99.90;;;7.66;59.93;103133.31;5879389;22;99434;-46
2024/01/27 04:22:22;;;;;;;2.30;1.20;;;6.90;99.90;;;7.40;55.67;103146.06;5879734;22;128892;-54
2024/01/27 04:24:48;;;;;;;5.23;1.30;;;6.90;99.90;;;7.27;54.95;103144.06;5781094;23;112792;-37
2024/01/27 04:28:00;;;;;;;6.30;2.07;;;6.80;99.90;;;7.44;55.28;103147.88;5803619;23;97455;-37
2024/01/27 04:30:25;;;;;;;3.27;1.50;;;6.80;99.90;;;7.17;54.89;103147.38;5983222;22;102257;-35
2024/01/27 04:33:09;;;;;;;8.53;1.60;;;6.70;99.90;;;7.16;56.79;103148.25;5950420;22;121292;-41
2024/01/27 04:35:44;;;;;;;5.33;1.60;;;6.70;99.90;;;7.03;54.43;103148.88;5902531;22;99522;-41
2024/01/27 04:38:10;;;;;;;9.20;1.63;;;6.60;99.90;;;7.39;58.47;103149.53;5870420;23;115609;-48
2024/01/27 04:40:50;;;;;;;3.13;1.37;;;6.70;99.90;;;7.07;54.23;103150.69;6025489;22;118888;-44
2024/01/27 04:43:25;;;;;;;3.60;1.50;;;6.60;99.90;;;6.96;55.72;103152.25;6047122;22;104190;-41
2024/01/27 04:45:51;;;;;;;5.13;1.70;;;6.50;99.90;;;6.99;54.01;103157.56;5891133;22;122556;-43
2024/01/27 04:48:23;;;;;;;11.60;2.00;;;6.50;99.90;;;7.00;59.50;103148.84;6113157;22;116278;-44
2024/01/27 04:50:56;;;;;;;7.67;1.77;;;6.40;99.90;;;7.29;55.73;103150.25;6026919;22;130330;-45
2024/01/27 04:53:44;;;;;;;9.43;2.60;;;6.60;99.90;;;7.10;55.08;103150.78;6037037;22;102886;-44
2024/01/27 04:56:24;;;;;;;3.73;1.43;;;6.60;99.90;;;6.93;54.37;103146.94;5916396;22;99504;-43
2024/01/27 04:59:00;;;;;;;2.77;1.53;;;6.50;99.90;;;7.07;60.24;103146.31;6040724;22;121968;-46
2024/01/27 05:01:28;;;;;;;5.53;1.90;;;6.40;99.90;;;6.99;55.20;103142.69;6029447;22;97915;-44
2024/01/27 05:04:11;;;;;;;5.63;2.07;;;6.50;99.90;;;6.90;54.93;103146.88;6085113;22;100441;-43
2024/01/27 05:06:46;;;;;;;4.20;1.70;;;6.40;99.90;;;7.05;60.35;103153.28;6080305;22;107636;-36
2024/01/27 05:09:21;;;;;;;5.37;1.30;;;6.40;99.90;;;7.60;62.95;103148.13;6026411;22;120724;-44
2024/01/27 05:11:51;;;;;;;3.63;1.27;;;6.70;99.90;;;7.19;55.12;103157.91;6022648;22;103375;-46
2024/01/27 05:14:29;;;;;;;10.20;3.77;;;6.60;99.90;;;7.03;53.76;103154.13;6027178;22;107537;-42
2024/01/27 05:17:10;;;;;;;8.97;4.17;;;6.50;99.90;;;7.59;61.07;103146.34;6009210;22;101546;-43
2024/01/27 05:19:39;;;;;;;3.63;1.90;;;6.70;99.90;;;7.32;54.91;103149.41;6070632;22;98021;-48
2024/01/27 05:22:07;;;;;;;5.73;1.57;;;6.70;99.90;;;7.25;56.22;103147.53;5954674;22;120769;-42
2024/01/27 05:24:36;;;;;;;7.63;1.50;;;6.70;99.90;;;7.16;55.52;103135.13;6090663;22;99437;-40
2024/01/27 05:27:04;;;;;;;5.40;1.83;;;6.60;99.90;;;7.05;55.20;103147.16;6045808;22;118226;-37
2024/01/27 05:29:30;;;;;;;9.20;2.50;;;6.50;99.90;;;6.94;54.35;103143.44;6030182;22;97012;-42
2024/01/27 05:31:58;;;;;;;7.90;2.20;;;6.40;99.90;;;7.06;56.04;103141.06;5979948;22;127642;-43
2024/01/27 05:34:24;;;;;;;4.03;1.30;;;6.50;99.90;;;6.95;55.52;103140.88;6074417;22;126098;-43
2024/01/27 05:37:01;;;;;;;7.63;2.03;;;6.50;99.90;;;6.87;54.93;103142.47;5987076;22;115807;-43
2024/01/27 05:39:29;;;;;;;9.30;1.90;;;6.40;99.90;;;6.84;55.54;103148.53;5990895;22;120424;-41
2024/01/27 05:42:11;;;;;;;4.97;1.60;;;6.40;99.90;;;6.77;55.14;103146.63;6052219;22;99710;-40
2024/01/27 05:44:37;;;;;;;6.97;1.50;;;6.40;99.90;;;6.81;55.18;103147.59;6043488;22;126031;-46
2024/01/27 05:47:10;;;;;;;6.07;1.43;;;6.40;99.90;;;6.75;55.34;103153.59;6120460;22;97422;-43
2024/01/27 05:49:51;;;;;;;4.47;1.87;;;6.30;99.90;;;6.84;57.17;103148.53;6070772;22;97507;-45
2024/01/27 05:52:19;;;;;;;2.97;1.43;;;6.30;99.90;;;6.83;55.95;103146.78;5918653;22;102041;-44
2024/01/27 05:54:47;;;;;;;3.03;1.50;;;6.30;99.90;;;6.77;55.98;103141.38;5948224;22;101907;-43
2024/01/27 05:57:49;;;;;;;5.53;2.00;;;6.30;99.90;;;7.19;59.58;103155.28;6041446;22;121360;-42
2024/01/27 06:00:18;;;;;;;4.17;1.37;;;6.40;99.90;;;7.13;57.06;103156.06;6080394;22;97678;-40
2024/01/27 06:02:57;;;;;;;6.70;1.80;;;6.50;99.90;;;7.58;61.96;103145.47;6006430;22;103070;-42
2024/01/27 06:05:22;;;;;;;5.33;1.93;;;6.70;99.90;;;7.77;56.12;103151.88;5952320;22;103943;-42
2024/01/27 06:07:49;;;;;;;7.37;1.80;;;7.00;99.90;;;7.72;58.32;103148.31;5976558;22;117408;-43
2024/01/27 06:10:49;;;;;;;12.70;1.67;;;6.90;99.90;;;8.06;59.03;103147.94;6028517;22;98849;-48
2024/01/27 06:13:22;;;;;;;3.30;1.23;;;7.10;99.90;;;7.68;52.88;103149.13;6003513;22;104200;-40
2024/01/27 06:16:04;;;;;;;4.47;1.60;;;7.00;99.90;;;7.64;55.49;103147.31;5877220;23;106008;-43
2024/01/27 06:18:30;;;;;;;5.63;1.87;;;6.90;99.90;;;7.47;54.34;103147.91;6035111;22;97410;-44
2024/01/27 06:21:04;;;;;;;2.70;1.50;;;6.80;99.90;;;7.33;52.78;103154.69;6042714;22;116034;-39
2024/01/27 06:23:41;;;;;;;5.77;1.57;;;6.80;99.90;;;7.19;54.56;103156.16;6071681;22;97287;-43
2024/01/27 06:26:11;;;;;;;9.17;2.40;;;6.70;99.90;;;7.47;59.41;103147.91;6079028;22;97544;-40
2024/01/27 06:28:41;;;;;;;4.70;1.87;;;6.70;99.90;;;7.32;53.55;103157.28;6068813;22;106422;-42
2024/01/27 06:31:11;;;;;;;5.43;1.77;;;6.70;99.90;;;7.12;54.75;103154.31;6055589;22;97373;-40
2024/01/27 06:33:40;;;;;;;6.40;1.63;;;6.60;99.90;;;7.39;56.42;103162.69;6111092;22;103954;-40
2024/01/27 06:36:18;;;;;;;5.03;1.97;;;6.70;99.90;;;7.20;55.33;103163.19;6026097;22;97274;-41
2024/01/27 06:38:49;;;;;;;4.90;2.07;;;6.60;99.90;;;7.42;60.36;103154.84;6069336;22;97532;-40
2024/01/27 06:41:23;;;;;;;4.57;1.40;;;6.60;99.90;;;7.50;56.42;103161.94;5869839;23;97602;-38
2024/01/27 06:43:49;;;;;;;3.93;1.40;;;6.70;99.90;;;7.22;53.99;103169.34;5926134;22;104088;-40
2024/01/27 06:46:18;;;;;;;9.60;2.03;;;6.60;99.90;;;7.31;58.16;103166.91;5999993;22;116696;-43
2024/01/27 06:48:44;;;;;;;4.60;1.70;;;6.60;99.90;;;7.66;60.99;103158.72;5906407;23;111128;-39
2024/01/27 06:51:16;;;;;;;8.40;1.80;;;6.70;99.90;;;7.47;55.52;103174.19;5950171;22;109669;-37
2024/01/27 06:53:42;;;;;;;6.80;2.00;;;6.70;99.90;;;7.70;59.53;103165.81;5943515;22;99890;-37
2024/01/27 06:56:22;;;;;;;6.07;1.83;;;6.80;99.90;;;7.57;54.03;103169.09;6017544;22;106208;-36
2024/01/27 06:58:56;;;;;;;4.07;1.07;;;6.80;99.90;;;7.32;54.07;103175.66;5938577;22;97366;-37
2024/01/27 07:01:22;;;;;;;2.63;1.27;;;6.70;99.90;;;7.11;53.93;103184.03;5831791;22;121627;-38
2024/01/27 07:03:56;;;;;;;3.07;1.20;;;6.60;99.90;;;7.07;55.85;103183.06;5894207;22;119168;-36
2024/01/27 07:06:24;;;;;;;5.17;1.73;;;6.50;99.90;;;7.11;56.36;103184.03;5891891;22;131615;-40
2024/01/27 07:08:50;;;;;;;3.30;1.40;;;6.50;99.90;;;7.07;57.57;103192.69;5929701;22;97245;-34
2024/01/27 07:11:22;;;;;;;2.40;1.57;;;6.50;99.90;;;7.45;59.86;103186.41;5929380;23;97746;-38
2024/01/27 07:13:48;;;;;;;8.20;2.30;;;6.60;99.90;;;7.44;56.81;103184.63;5957343;22;103964;-40
2024/01/27 07:16:16;;;;;;;7.43;1.87;;;6.70;99.90;;;7.47;55.47;103189.06;6061489;22;132750;-40
2024/01/27 07:18:45;;;;;;;2.97;1.53;;;6.80;99.90;;;7.32;54.43;103189.66;5843537;22;121893;-36
2024/01/27 07:21:34;;;;;;;10.40;1.27;;;6.70;99.90;;;7.24;55.06;103186.03;5927969;22;112561;-37
2024/01/27 07:24:25;;;;;;;7.33;1.80;;;6.60;99.90;;;7.31;58.43;103197.53;5918516;22;101974;-43
2024/01/27 07:26:51;;;;;;;8.83;1.40;;;6.60;99.90;;;7.24;55.93;103196.53;5823144;22;103140;-39
2024/01/27 07:29:26;;;;;;;6.37;1.63;;;6.60;99.90;;;7.08;55.22;103195.34;6013742;22;109069;-42
2024/01/27 07:32:17;;;;;;;3.57;1.73;;;6.50;99.90;;;7.37;60.76;103198.50;5902040;22;97797;-45
2024/01/27 07:35:01;;;;;;;6.97;1.70;;;6.60;99.90;;;7.38;57.75;103200.31;6009753;22;133339;-42
2024/01/27 07:37:43;;;;;;;4.90;1.20;;;6.70;99.90;;;7.32;57.42;103200.19;6018100;22;122363;-44
2024/01/27 07:40:11;;;;;;;4.93;1.67;;;6.70;99.90;;;7.19;54.62;103203.44;6007106;22;99348;-34
2024/01/27 07:42:37;;;;;;;3.73;1.13;;;6.70;99.90;;;7.35;57.38;103207.22;5967683;22;97605;-45
2024/01/27 07:45:11;;;;;;;3.27;1.20;;;6.70;99.90;;;7.36;56.13;103206.34;6054512;22;102489;-41
2024/01/27 07:47:37;;;;;;;3.77;1.70;;;6.70;99.90;;;7.29;55.01;103212.38;5930637;22;97578;-37
2024/01/27 07:50:07;;;;;;;3.13;1.67;;;6.70;99.90;;;7.33;57.34;103206.31;6006936;22;98287;-37
2024/01/27 07:52:32;;;;;;;5.57;1.67;;;6.70;99.90;;;7.27;55.58;103212.34;5890668;22;100829;-42
2024/01/27 07:55:01;;;;;;;3.67;1.60;;;6.70;99.90;;;7.17;55.31;103215.66;5925909;22;97803;-36
2024/01/27 07:57:40;;;;;;;6.07;1.33;;;6.70;99.90;;;7.26;55.01;103214.94;5936267;22;98957;-42
2024/01/27 08:00:20;;;;;;;4.97;1.57;;;6.70;99.90;;;7.14;55.59;103215.59;6017135;22;100681;-43
2024/01/27 08:02:56;;;;;;;6.50;2.27;;;6.70;99.90;;;7.07;54.93;103224.19;5867617;22;99090;-38
2024/01/27 08:05:33;;;;;;;4.83;1.50;;;6.60;99.90;;;7.05;56.38;103236.41;5870627;23;116937;-45
2024/01/27 08:07:59;;;;;;;3.50;1.67;;;6.60;99.90;;;7.03;56.39;103228.50;6007485;22;99312;-37
2024/01/27 08:10:25;;;;;;;7.90;1.50;;;6.60;99.90;;;6.99;56.43;103247.69;5953297;22;97737;-41
2024/01/27 08:12:56;;;;;;;6.70;1.60;;;6.60;99.90;;;7.09;59.66;103244.41;5954338;22;97558;-42
2024/01/27 08:15:27;;;;;;;10.43;1.80;;;6.60;99.90;;;7.05;56.70;103231.16;5969596;22;126336;-40
2024/01/27 08:17:52;;;;;;;4.23;1.43;;;6.70;99.90;;;6.83;56.59;103241.25;5969683;22;104967;-40
2024/01/27 08:20:18;;;;;;;6.20;2.00;;;6.60;99.90;;;6.59;57.12;103230.22;5957354;22;120891;-40
2024/01/27 08:22:59;;;;;;;6.23;1.70;;;6.30;99.90;;;6.64;58.13;103239.06;5966868;22;115955;-43
2024/01/27 08:25:31;;;;;;;9.73;2.60;;;6.30;99.90;;;6.70;57.74;103227.81;5822616;22;102191;-46
2024/01/27 08:28:14;;;;;;;12.67;3.40;;;6.40;99.90;;;6.85;61.90;103238.63;5931618;22;107476;-41
2024/01/27 08:31:01;;;;;;;3.67;2.00;;;6.50;99.90;;;6.83;58.65;103241.25;5981003;22;97949;-40
2024/01/27 08:33:36;;;;;;;4.30;2.73;;;6.60;99.90;;;6.84;58.48;103243.00;6055286;22;97292;-43
2024/01/27 08:36:23;;;;;;;9.80;2.67;;;6.60;99.90;;;6.82;58.62;103249.97;5914791;22;98529;-40
2024/01/27 08:38:56;;;;;;;10.77;2.27;;;6.60;99.90;;;6.86;59.12;103250.91;6056818;22;101679;-43
2024/01/27 08:41:25;;;;;;;4.13;1.77;;;6.60;99.90;;;7.02;61.06;103249.47;5997098;22;119124;-43
2024/01/27 08:43:50;;;;;;;4.03;1.60;;;6.70;99.90;;;7.10;58.57;103255.78;6135376;22;97419;-42
2024/01/27 08:46:19;;;;;;;6.57;1.80;;;6.80;99.90;;;7.26;59.57;103244.72;6111137;22;103361;-43
2024/01/27 08:48:54;;;;;;;5.47;1.53;;;6.90;99.90;;;7.75;63.23;103258.72;5930702;22;103802;-43
2024/01/27 08:51:20;;;;;;;3.60;1.40;;;7.20;99.90;;;7.96;59.54;103253.84;5922753;22;99176;-42
2024/01/27 08:54:01;;;;;;;8.30;1.20;;;7.40;99.90;;;8.12;57.51;103256.72;5965923;22;98880;-42
2024/01/27 08:56:45;;;;;;;2.97;1.20;;;7.60;99.90;;;8.28;56.67;103256.97;5941233;22;102001;-40
2024/01/27 08:59:17;;;;;;;5.67;1.70;;;7.70;99.90;;;8.62;57.29;103258.38;5995288;22;98877;-44
2024/01/27 09:01:42;;;;;;;3.20;1.17;;;8.00;99.90;;;8.80;58.81;103241.03;6013760;22;97678;-41
2024/01/27 09:04:11;;;;;;;3.97;1.23;;;8.10;99.90;;;8.95;58.56;103246.50;6064711;22;109038;-44
2024/01/27 09:06:53;;;;;;;4.00;1.63;;;8.30;99.90;;;8.98;57.90;103230.75;6049661;22;116823;-41
2024/01/27 09:09:44;;;;;;;5.97;1.67;;;8.30;99.90;;;9.21;54.16;103221.34;5914976;22;101711;-36
2024/01/27 09:12:09;;;;;;;7.33;2.13;;;8.60;99.90;;;9.11;53.45;103226.47;6047632;22;102247;-36
2024/01/27 09:14:35;;;;;;;10.50;2.13;;;8.60;99.90;;;9.20;55.48;103227.47;6074716;22;108163;-41
2024/01/27 09:17:06;;;;;;;10.80;2.13;;;8.60;99.90;;;9.48;54.06;103227.75;6076163;22;100480;-36
2024/01/27 09:19:36;;;;;;;2.20;1.17;;;8.90;99.90;;;9.78;56.86;103217.50;6027495;22;115602;-36
2024/01/27 09:22:11;;;;;;;8.20;1.93;;;9.10;99.90;;;9.92;56.02;103224.63;6076571;22;97296;-37
2024/01/27 09:24:39;;;;;;;7.33;2.27;;;9.20;99.90;;;9.66;51.12;103219.13;6021767;22;116873;-35
2024/01/27 09:27:05;;;;;;;4.53;1.60;;;9.10;99.90;;;9.45;52.05;103212.81;6047792;22;99172;-39
2024/01/27 09:29:35;;;;;;;4.00;1.80;;;9.00;99.90;;;9.48;53.41;103222.50;6037154;22;98041;-36
2024/01/27 09:32:17;;;;;;;6.13;1.87;;;8.90;99.90;;;9.45;54.26;103227.75;6017073;22;115782;-34
2024/01/27 09:34:43;;;;;;;5.53;1.70;;;8.90;99.90;;;9.57;56.22;103222.59;6078141;22;98012;-34
2024/01/27 09:37:08;;;;;;;7.20;1.70;;;8.90;99.90;;;9.75;54.30;103233.28;5974200;22;118217;-34
2024/01/27 09:39:48;;;;;;;12.37;1.97;;;9.10;99.90;;;9.66;52.42;103227.03;5838483;22;126284;-37
2024/01/27 09:42:22;;;;;;;9.47;2.00;;;9.10;99.90;;;9.64;54.11;103229.66;6024258;22;97224;-33
2024/01/27 09:44:54;;;;;;;3.90;2.00;;;9.10;99.90;;;9.37;52.44;103211.84;6014393;22;97587;-39
2024/01/27 09:47:30;;;;;;;4.53;1.53;;;9.00;99.90;;;9.38;52.91;103228.53;5825054;23;102584;-36
2024/01/27 09:49:58;;;;;;;9.10;2.23;;;9.00;99.90;;;9.29;54.17;103215.28;5948257;22;117794;-36
2024/01/27 09:52:42;;;;;;;7.27;2.77;;;8.90;99.90;;;9.57;54.33;103226.97;6064427;22;97461;-36
2024/01/27 09:55:36;;;;;;;3.90;1.63;;;9.10;99.90;;;9.90;56.00;103216.72;6011186;22;99478;-35
2024/01/27 09:58:07;;;;;;;4.00;1.53;;;9.30;99.90;;;10.11;55.31;103210.69;6051631;22;103606;-34
2024/01/27 10:00:36;;;;;;;7.93;1.80;;;9.60;99.90;;;10.28;53.16;103210.84;5929418;22;103540;-34
2024/01/27 10:03:16;;;;;;;5.73;2.07;;;9.70;99.90;;;10.20;50.96;103208.13;5997527;22;97098;-36
2024/01/27 10:05:43;;;;;;;6.20;1.37;;;9.70;99.90;;;9.94;50.99;103217.59;6055886;22;106038;-38
2024/01/27 10:08:09;;;;;;;4.73;1.97;;;9.60;99.90;;;9.93;51.25;103221.13;6081481;22;99563;-35
2024/01/27 10:11:08;;;;;;;2.97;1.93;;;9.50;99.90;;;9.69;51.40;103227.97;5828265;22;126615;-43
2024/01/27 10:13:43;;;;;;;9.87;2.23;;;9.40;99.90;;;9.91;53.84;103228.13;6084068;22;97211;-34
2024/01/27 10:16:21;;;;;;;11.00;2.17;;;9.50;99.90;;;10.05;54.46;103224.72;5924171;22;119934;-37
2024/01/27 10:19:05;;;;;;;9.80;2.63;;;9.50;99.90;;;10.11;51.74;103226.53;6056096;22;102018;-35
2024/01/27 10:21:34;;;;;;;3.80;1.83;;;9.60;99.90;;;10.17;54.57;103231.84;6008938;22;129157;-37
2024/01/27 10:24:06;;;;;;;5.90;2.27;;;9.70;99.90;;;10.12;51.22;103233.56;5948952;22;97156;-39
2024/01/27 10:26:33;;;;;;;8.33;1.70;;;9.70;99.90;;;9.96;52.07;103236.97;6022891;22;100322;-45
2024/01/27 10:29:08;;;;;;;9.27;2.07;;;9.60;99.90;;;9.93;52.73;103239.56;6020656;22;103037;-37
2024/01/27 10:31:36;;;;;;;9.90;2.33;;;9.70;99.90;;;10.14;52.63;103255.59;5870755;22;108495;-36
2024/01/27 10:34:19;;;;;;;3.03;1.60;;;9.80;99.90;;;10.11;52.33;103250.25;6054324;22;97148;-37
2024/01/27 10:37:01;;;;;;;8.17;2.60;;;9.80;99.90;;;10.05;51.93;103253.75;6035292;22;100831;-37
2024/01/27 10:39:49;;;;;;;2.97;1.40;;;9.90;99.90;;;10.52;54.94;103244.41;5902210;22;103053;-37